sensor_id;sensor_type;location;lat;lon;timestamp;temperature;humidity
16198;DHT22;8206;51.440;6.914;2023-02-28T00:01:05;-0.70;1.00
16198;DHT22;8206;51.440;6.914;2023-02-28T00:03:31;-0.70;1.00
16198;DHT22;8206;51.440;6.914;2023-02-28T00:06:02;-0.80;1.00
16198;DHT22;8206;51.440;6.914;2023-02-28T00:08:28;-0.90;1.00
16198;DHT22;8206;51.440;6.914;2023-02-28T00:10:55;-0.90;1.00
16198;DHT22;8206;51.440;6.914;2023-02-28T00:13:22;-1.00;1.00
16198;DHT22;8206;51.440;6.914;2023-02-28T00:15:59;-1.00;1.00
16198;DHT22;8206;51.440;6.914;2023-02-28T00:18:27;-1.00;1.00
16198;DHT22;8206;51.440;6.914;2023-02-28T00:20:54;-0.90;1.00
16198;DHT22;8206;51.440;6.914;2023-02-28T00:23:22;-0.90;1.00
16198;DHT22;8206;51.440;6.914;2023-02-28T00:25:49;-0.90;1.00
16198;DHT22;8206;51.440;6.914;2023-02-28T00:28:16;-0.90;1.00
16198;DHT22;8206;51.440;6.914;2023-02-28T00:30:43;-0.90;1.00
16198;DHT22;8206;51.440;6.914;2023-02-28T00:33:10;-0.90;1.00
16198;DHT22;8206;51.440;6.914;2023-02-28T00:35:37;-0.90;1.00
16198;DHT22;8206;51.440;6.914;2023-02-28T00:38:04;-0.90;1.00
16198;DHT22;8206;51.440;6.914;2023-02-28T00:40:32;-1.00;1.00
16198;DHT22;8206;51.440;6.914;2023-02-28T00:42:59;-1.00;1.00
16198;DHT22;8206;51.440;6.914;2023-02-28T00:45:25;-0.90;1.00
16198;DHT22;8206;51.440;6.914;2023-02-28T00:47:52;-0.80;1.00
16198;DHT22;8206;51.440;6.914;2023-02-28T00:50:19;-0.60;1.00
16198;DHT22;8206;51.440;6.914;2023-02-28T00:52:46;-0.60;1.00
16198;DHT22;8206;51.440;6.914;2023-02-28T00:55:13;-0.70;1.00
16198;DHT22;8206;51.440;6.914;2023-02-28T00:57:41;-0.70;1.00
16198;DHT22;8206;51.440;6.914;2023-02-28T01:00:09;-0.80;1.00
16198;DHT22;8206;51.440;6.914;2023-02-28T01:02:36;-0.80;1.00
16198;DHT22;8206;51.440;6.914;2023-02-28T01:05:03;-0.90;1.00
16198;DHT22;8206;51.440;6.914;2023-02-28T01:07:30;-0.90;1.00
16198;DHT22;8206;51.440;6.914;2023-02-28T01:09:57;-0.90;1.00
16198;DHT22;8206;51.440;6.914;2023-02-28T01:12:24;-0.90;1.00
16198;DHT22;8206;51.440;6.914;2023-02-28T01:14:52;-0.90;1.00
16198;DHT22;8206;51.440;6.914;2023-02-28T01:17:19;-0.90;1.00
16198;DHT22;8206;51.440;6.914;2023-02-28T01:19:45;-0.90;1.00
16198;DHT22;8206;51.440;6.914;2023-02-28T01:22:12;-0.90;1.00
16198;DHT22;8206;51.440;6.914;2023-02-28T01:24:39;-0.90;1.00
16198;DHT22;8206;51.440;6.914;2023-02-28T01:27:05;-0.90;1.00
16198;DHT22;8206;51.440;6.914;2023-02-28T01:29:32;-0.90;1.00
16198;DHT22;8206;51.440;6.914;2023-02-28T01:32:00;-0.90;1.00
16198;DHT22;8206;51.440;6.914;2023-02-28T01:34:27;-1.00;1.00
16198;DHT22;8206;51.440;6.914;2023-02-28T01:36:54;-1.00;1.00
16198;DHT22;8206;51.440;6.914;2023-02-28T01:39:20;-1.10;1.00
16198;DHT22;8206;51.440;6.914;2023-02-28T01:41:48;-1.20;1.00
16198;DHT22;8206;51.440;6.914;2023-02-28T01:47:21;-1.30;1.00
16198;DHT22;8206;51.440;6.914;2023-02-28T01:49:50;-1.40;1.00
16198;DHT22;8206;51.440;6.914;2023-02-28T01:52:18;-1.40;1.00
16198;DHT22;8206;51.440;6.914;2023-02-28T01:54:50;-1.40;1.00
16198;DHT22;8206;51.440;6.914;2023-02-28T01:57:20;-1.50;1.00
16198;DHT22;8206;51.440;6.914;2023-02-28T01:59:52;-1.50;1.00
16198;DHT22;8206;51.440;6.914;2023-02-28T02:02:23;-1.60;1.00
16198;DHT22;8206;51.440;6.914;2023-02-28T02:04:54;-1.70;1.00
16198;DHT22;8206;51.440;6.914;2023-02-28T02:07:22;-1.70;1.00
16198;DHT22;8206;51.440;6.914;2023-02-28T02:09:49;-1.80;1.00
16198;DHT22;8206;51.440;6.914;2023-02-28T02:12:25;-1.90;1.00
16198;DHT22;8206;51.440;6.914;2023-02-28T02:15:00;-1.90;1.00
16198;DHT22;8206;51.440;6.914;2023-02-28T02:17:34;-2.00;1.00
16198;DHT22;8206;51.440;6.914;2023-02-28T02:26:44;-2.10;1.00
16198;DHT22;8206;51.440;6.914;2023-02-28T02:32:34;-2.20;1.00
16198;DHT22;8206;51.440;6.914;2023-02-28T02:35:12;-2.20;1.00
16198;DHT22;8206;51.440;6.914;2023-02-28T02:37:45;-2.30;1.00
16198;DHT22;8206;51.440;6.914;2023-02-28T02:40:16;-2.30;1.00
16198;DHT22;8206;51.440;6.914;2023-02-28T02:42:49;-2.30;1.00
16198;DHT22;8206;51.440;6.914;2023-02-28T02:45:21;-2.30;1.00
16198;DHT22;8206;51.440;6.914;2023-02-28T02:47:49;-2.20;1.00
16198;DHT22;8206;51.440;6.914;2023-02-28T02:50:22;-2.30;1.00
16198;DHT22;8206;51.440;6.914;2023-02-28T02:52:53;-2.30;1.00
16198;DHT22;8206;51.440;6.914;2023-02-28T02:55:22;-2.30;1.00
16198;DHT22;8206;51.440;6.914;2023-02-28T02:57:52;-2.40;1.00
16198;DHT22;8206;51.440;6.914;2023-02-28T03:00:23;-2.40;1.00
16198;DHT22;8206;51.440;6.914;2023-02-28T03:02:52;-2.50;1.00
16198;DHT22;8206;51.440;6.914;2023-02-28T03:05:24;-2.50;1.00
16198;DHT22;8206;51.440;6.914;2023-02-28T03:07:51;-2.50;1.00
16198;DHT22;8206;51.440;6.914;2023-02-28T03:10:34;-2.50;1.00
16198;DHT22;8206;51.440;6.914;2023-02-28T03:13:14;-2.50;1.00
16198;DHT22;8206;51.440;6.914;2023-02-28T03:15:52;-2.50;1.00
16198;DHT22;8206;51.440;6.914;2023-02-28T03:18:29;-2.50;1.00
16198;DHT22;8206;51.440;6.914;2023-02-28T03:21:06;-2.60;1.00
16198;DHT22;8206;51.440;6.914;2023-02-28T03:23:40;-2.60;1.00
16198;DHT22;8206;51.440;6.914;2023-02-28T03:26:16;-2.60;1.00
16198;DHT22;8206;51.440;6.914;2023-02-28T03:28:50;-2.40;1.00
16198;DHT22;8206;51.440;6.914;2023-02-28T03:31:22;-2.40;1.00
16198;DHT22;8206;51.440;6.914;2023-02-28T03:33:55;-2.40;1.00
16198;DHT22;8206;51.440;6.914;2023-02-28T03:36:26;-2.40;1.00
16198;DHT22;8206;51.440;6.914;2023-02-28T03:38:57;-2.40;1.00
16198;DHT22;8206;51.440;6.914;2023-02-28T03:41:31;-2.40;1.00
16198;DHT22;8206;51.440;6.914;2023-02-28T03:44:04;-2.40;1.00
16198;DHT22;8206;51.440;6.914;2023-02-28T03:46:34;-2.40;1.00
16198;DHT22;8206;51.440;6.914;2023-02-28T03:49:07;-2.40;1.00
16198;DHT22;8206;51.440;6.914;2023-02-28T03:51:40;-2.40;1.00
16198;DHT22;8206;51.440;6.914;2023-02-28T03:54:12;-2.40;1.00
16198;DHT22;8206;51.440;6.914;2023-02-28T03:56:45;-2.40;1.00
16198;DHT22;8206;51.440;6.914;2023-02-28T03:59:18;-2.40;1.00
16198;DHT22;8206;51.440;6.914;2023-02-28T04:01:47;-2.40;1.00
16198;DHT22;8206;51.440;6.914;2023-02-28T04:04:15;-2.40;1.00
16198;DHT22;8206;51.440;6.914;2023-02-28T04:06:44;-2.30;1.00
16198;DHT22;8206;51.440;6.914;2023-02-28T04:09:13;-2.20;1.00
16198;DHT22;8206;51.440;6.914;2023-02-28T04:11:42;-2.20;1.00
16198;DHT22;8206;51.440;6.914;2023-02-28T04:14:10;-2.30;1.00
16198;DHT22;8206;51.440;6.914;2023-02-28T04:16:39;-2.20;1.00
16198;DHT22;8206;51.440;6.914;2023-02-28T04:19:08;-2.20;1.00
16198;DHT22;8206;51.440;6.914;2023-02-28T04:21:37;-2.30;1.00
16198;DHT22;8206;51.440;6.914;2023-02-28T04:24:06;-2.30;1.00
16198;DHT22;8206;51.440;6.914;2023-02-28T04:26:35;-2.30;1.00
16198;DHT22;8206;51.440;6.914;2023-02-28T04:29:03;-2.30;1.00
16198;DHT22;8206;51.440;6.914;2023-02-28T04:31:31;-2.40;1.00
16198;DHT22;8206;51.440;6.914;2023-02-28T04:33:58;-2.40;1.00
16198;DHT22;8206;51.440;6.914;2023-02-28T04:36:24;-2.40;1.00
16198;DHT22;8206;51.440;6.914;2023-02-28T04:38:52;-2.50;1.00
16198;DHT22;8206;51.440;6.914;2023-02-28T04:41:20;-2.50;1.00
16198;DHT22;8206;51.440;6.914;2023-02-28T04:43:48;-2.60;1.00
16198;DHT22;8206;51.440;6.914;2023-02-28T04:46:15;-2.70;1.00
16198;DHT22;8206;51.440;6.914;2023-02-28T04:48:42;-2.70;1.00
16198;DHT22;8206;51.440;6.914;2023-02-28T04:51:11;-2.70;1.00
16198;DHT22;8206;51.440;6.914;2023-02-28T04:53:40;-2.80;1.00
16198;DHT22;8206;51.440;6.914;2023-02-28T04:56:10;-2.70;1.00
16198;DHT22;8206;51.440;6.914;2023-02-28T04:58:39;-2.70;1.00
16198;DHT22;8206;51.440;6.914;2023-02-28T05:01:14;-2.70;1.00
16198;DHT22;8206;51.440;6.914;2023-02-28T05:03:42;-2.70;1.00
16198;DHT22;8206;51.440;6.914;2023-02-28T05:06:09;-2.70;1.00
16198;DHT22;8206;51.440;6.914;2023-02-28T05:08:37;-2.80;1.00
16198;DHT22;8206;51.440;6.914;2023-02-28T05:11:05;-2.80;1.00
16198;DHT22;8206;51.440;6.914;2023-02-28T05:13:32;-2.80;1.00
16198;DHT22;8206;51.440;6.914;2023-02-28T05:16:01;-2.70;1.00
16198;DHT22;8206;51.440;6.914;2023-02-28T05:18:28;-2.70;1.00
16198;DHT22;8206;51.440;6.914;2023-02-28T05:20:54;-2.70;1.00
16198;DHT22;8206;51.440;6.914;2023-02-28T05:23:23;-2.60;1.00
16198;DHT22;8206;51.440;6.914;2023-02-28T05:25:49;-2.60;1.00
16198;DHT22;8206;51.440;6.914;2023-02-28T05:28:18;-2.70;1.00
16198;DHT22;8206;51.440;6.914;2023-02-28T05:30:45;-2.70;1.00
16198;DHT22;8206;51.440;6.914;2023-02-28T05:33:13;-2.70;1.00
16198;DHT22;8206;51.440;6.914;2023-02-28T05:35:41;-2.70;1.00
16198;DHT22;8206;51.440;6.914;2023-02-28T05:38:08;-2.70;1.00
16198;DHT22;8206;51.440;6.914;2023-02-28T05:40:35;-2.70;1.00
16198;DHT22;8206;51.440;6.914;2023-02-28T05:43:04;-2.80;1.00
16198;DHT22;8206;51.440;6.914;2023-02-28T05:45:30;-2.80;1.00
16198;DHT22;8206;51.440;6.914;2023-02-28T05:47:57;-2.80;1.00
16198;DHT22;8206;51.440;6.914;2023-02-28T05:50:25;-2.80;1.00
16198;DHT22;8206;51.440;6.914;2023-02-28T05:52:52;-2.80;1.00
16198;DHT22;8206;51.440;6.914;2023-02-28T05:55:19;-2.80;1.00
16198;DHT22;8206;51.440;6.914;2023-02-28T05:57:46;-2.80;1.00
16198;DHT22;8206;51.440;6.914;2023-02-28T06:00:13;-2.80;1.00
16198;DHT22;8206;51.440;6.914;2023-02-28T06:02:43;-2.80;1.00
16198;DHT22;8206;51.440;6.914;2023-02-28T06:05:13;-2.70;1.00
16198;DHT22;8206;51.440;6.914;2023-02-28T06:07:42;-2.60;1.00
16198;DHT22;8206;51.440;6.914;2023-02-28T06:10:10;-2.60;1.00
16198;DHT22;8206;51.440;6.914;2023-02-28T06:12:37;-2.70;1.00
16198;DHT22;8206;51.440;6.914;2023-02-28T06:15:05;-2.70;1.00
16198;DHT22;8206;51.440;6.914;2023-02-28T06:17:31;-2.70;1.00
16198;DHT22;8206;51.440;6.914;2023-02-28T06:19:58;-2.70;1.00
16198;DHT22;8206;51.440;6.914;2023-02-28T06:22:25;-2.80;1.00
16198;DHT22;8206;51.440;6.914;2023-02-28T06:24:53;-2.80;1.00
16198;DHT22;8206;51.440;6.914;2023-02-28T06:27:20;-2.80;1.00
16198;DHT22;8206;51.440;6.914;2023-02-28T06:29:47;-2.80;1.00
16198;DHT22;8206;51.440;6.914;2023-02-28T06:32:14;-2.80;1.00
16198;DHT22;8206;51.440;6.914;2023-02-28T06:34:41;-2.80;1.00
16198;DHT22;8206;51.440;6.914;2023-02-28T06:37:07;-2.80;1.00
16198;DHT22;8206;51.440;6.914;2023-02-28T06:39:34;-2.80;1.00
16198;DHT22;8206;51.440;6.914;2023-02-28T06:42:02;-2.80;1.00
16198;DHT22;8206;51.440;6.914;2023-02-28T06:44:29;-2.80;1.00
16198;DHT22;8206;51.440;6.914;2023-02-28T06:47:01;-2.80;1.00
16198;DHT22;8206;51.440;6.914;2023-02-28T06:49:28;-2.70;1.00
16198;DHT22;8206;51.440;6.914;2023-02-28T06:51:55;-2.70;1.00
16198;DHT22;8206;51.440;6.914;2023-02-28T06:54:22;-2.60;1.00
16198;DHT22;8206;51.440;6.914;2023-02-28T06:56:49;-2.60;1.00
16198;DHT22;8206;51.440;6.914;2023-02-28T06:59:17;-2.50;1.00
16198;DHT22;8206;51.440;6.914;2023-02-28T07:01:44;-2.40;1.00
16198;DHT22;8206;51.440;6.914;2023-02-28T07:04:10;-2.40;1.00
16198;DHT22;8206;51.440;6.914;2023-02-28T07:06:38;-2.40;1.00
16198;DHT22;8206;51.440;6.914;2023-02-28T07:09:05;-2.30;1.00
16198;DHT22;8206;51.440;6.914;2023-02-28T07:11:32;-2.30;1.00
16198;DHT22;8206;51.440;6.914;2023-02-28T07:13:58;-2.20;1.00
16198;DHT22;8206;51.440;6.914;2023-02-28T07:16:27;-2.20;1.00
16198;DHT22;8206;51.440;6.914;2023-02-28T07:18:53;-2.10;1.00
16198;DHT22;8206;51.440;6.914;2023-02-28T07:21:20;-2.00;1.00
16198;DHT22;8206;51.440;6.914;2023-02-28T07:23:47;-1.90;1.00
16198;DHT22;8206;51.440;6.914;2023-02-28T07:26:15;-1.80;1.00
16198;DHT22;8206;51.440;6.914;2023-02-28T07:28:43;-1.70;1.00
16198;DHT22;8206;51.440;6.914;2023-02-28T07:31:11;-1.70;1.00
16198;DHT22;8206;51.440;6.914;2023-02-28T07:33:40;-1.60;1.00
16198;DHT22;8206;51.440;6.914;2023-02-28T07:36:10;-1.50;1.00
16198;DHT22;8206;51.440;6.914;2023-02-28T07:38:41;-1.40;1.00
16198;DHT22;8206;51.440;6.914;2023-02-28T07:41:07;-1.30;1.00
16198;DHT22;8206;51.440;6.914;2023-02-28T07:43:35;-1.20;1.00
16198;DHT22;8206;51.440;6.914;2023-02-28T07:46:02;-1.20;1.00
16198;DHT22;8206;51.440;6.914;2023-02-28T07:48:29;-1.10;1.00
16198;DHT22;8206;51.440;6.914;2023-02-28T07:50:58;-1.00;1.00
16198;DHT22;8206;51.440;6.914;2023-02-28T07:53:25;-0.90;1.00
16198;DHT22;8206;51.440;6.914;2023-02-28T07:55:54;-0.90;1.00
16198;DHT22;8206;51.440;6.914;2023-02-28T07:58:21;-0.80;1.00
16198;DHT22;8206;51.440;6.914;2023-02-28T08:00:48;-0.70;1.00
16198;DHT22;8206;51.440;6.914;2023-02-28T08:03:18;-0.50;1.00
16198;DHT22;8206;51.440;6.914;2023-02-28T08:05:45;-0.50;1.00
16198;DHT22;8206;51.440;6.914;2023-02-28T08:08:15;-0.40;1.00
16198;DHT22;8206;51.440;6.914;2023-02-28T08:10:42;-0.40;1.00
16198;DHT22;8206;51.440;6.914;2023-02-28T08:13:09;-0.30;1.00
16198;DHT22;8206;51.440;6.914;2023-02-28T08:15:36;-0.40;1.00
16198;DHT22;8206;51.440;6.914;2023-02-28T08:18:03;-0.30;1.00
16198;DHT22;8206;51.440;6.914;2023-02-28T08:20:30;-0.30;1.00
16198;DHT22;8206;51.440;6.914;2023-02-28T08:22:57;-0.20;1.00
16198;DHT22;8206;51.440;6.914;2023-02-28T08:25:25;-0.10;1.00
16198;DHT22;8206;51.440;6.914;2023-02-28T08:27:52;0.00;1.00
16198;DHT22;8206;51.440;6.914;2023-02-28T08:30:19;0.00;1.00
16198;DHT22;8206;51.440;6.914;2023-02-28T08:32:46;0.10;1.00
16198;DHT22;8206;51.440;6.914;2023-02-28T08:35:12;0.10;1.00
16198;DHT22;8206;51.440;6.914;2023-02-28T08:37:39;0.20;1.00
16198;DHT22;8206;51.440;6.914;2023-02-28T08:40:07;0.10;1.00
16198;DHT22;8206;51.440;6.914;2023-02-28T08:42:35;0.10;1.00
16198;DHT22;8206;51.440;6.914;2023-02-28T08:45:03;0.20;1.00
16198;DHT22;8206;51.440;6.914;2023-02-28T08:47:30;0.30;1.00
16198;DHT22;8206;51.440;6.914;2023-02-28T08:49:56;0.40;1.00
16198;DHT22;8206;51.440;6.914;2023-02-28T08:52:23;0.50;1.00
16198;DHT22;8206;51.440;6.914;2023-02-28T08:54:50;0.60;1.00
16198;DHT22;8206;51.440;6.914;2023-02-28T08:57:16;0.60;1.00
16198;DHT22;8206;51.440;6.914;2023-02-28T08:59:45;0.60;1.00
16198;DHT22;8206;51.440;6.914;2023-02-28T09:02:12;0.70;1.00
16198;DHT22;8206;51.440;6.914;2023-02-28T09:04:39;0.70;1.00
16198;DHT22;8206;51.440;6.914;2023-02-28T09:07:07;0.90;1.00
16198;DHT22;8206;51.440;6.914;2023-02-28T09:09:33;0.90;1.00
16198;DHT22;8206;51.440;6.914;2023-02-28T09:12:00;1.00;1.00
16198;DHT22;8206;51.440;6.914;2023-02-28T09:14:27;1.10;1.00
16198;DHT22;8206;51.440;6.914;2023-02-28T09:16:55;1.20;1.00
16198;DHT22;8206;51.440;6.914;2023-02-28T09:19:22;1.20;1.00
16198;DHT22;8206;51.440;6.914;2023-02-28T09:21:49;1.20;1.00
16198;DHT22;8206;51.440;6.914;2023-02-28T09:24:15;1.40;1.00
16198;DHT22;8206;51.440;6.914;2023-02-28T09:26:43;1.50;1.00
16198;DHT22;8206;51.440;6.914;2023-02-28T09:29:10;1.60;1.00
16198;DHT22;8206;51.440;6.914;2023-02-28T09:31:37;1.70;1.00
16198;DHT22;8206;51.440;6.914;2023-02-28T09:34:05;1.80;1.00
16198;DHT22;8206;51.440;6.914;2023-02-28T09:36:32;2.00;1.00
16198;DHT22;8206;51.440;6.914;2023-02-28T09:39:00;2.10;1.00
16198;DHT22;8206;51.440;6.914;2023-02-28T09:41:37;2.10;1.00
16198;DHT22;8206;51.440;6.914;2023-02-28T09:44:06;2.10;1.00
16198;DHT22;8206;51.440;6.914;2023-02-28T09:46:36;2.20;1.00
16198;DHT22;8206;51.440;6.914;2023-02-28T09:49:10;2.30;1.00
16198;DHT22;8206;51.440;6.914;2023-02-28T09:51:49;2.40;1.00
16198;DHT22;8206;51.440;6.914;2023-02-28T09:54:19;2.40;1.00
16198;DHT22;8206;51.440;6.914;2023-02-28T09:56:49;2.50;1.00
16198;DHT22;8206;51.440;6.914;2023-02-28T09:59:29;2.70;99.90
16198;DHT22;8206;51.440;6.914;2023-02-28T10:02:02;2.70;99.90
16198;DHT22;8206;51.440;6.914;2023-02-28T10:04:41;2.70;99.90
16198;DHT22;8206;51.440;6.914;2023-02-28T10:07:18;2.80;1.00
16198;DHT22;8206;51.440;6.914;2023-02-28T10:09:50;2.90;99.90
16198;DHT22;8206;51.440;6.914;2023-02-28T10:12:20;2.80;99.90
16198;DHT22;8206;51.440;6.914;2023-02-28T10:14:50;2.90;99.90
16198;DHT22;8206;51.440;6.914;2023-02-28T10:17:20;3.10;99.90
16198;DHT22;8206;51.440;6.914;2023-02-28T10:19:56;3.20;99.90
16198;DHT22;8206;51.440;6.914;2023-02-28T10:22:29;3.40;99.90
16198;DHT22;8206;51.440;6.914;2023-02-28T10:24:58;3.50;99.90
16198;DHT22;8206;51.440;6.914;2023-02-28T10:27:30;3.60;99.90
16198;DHT22;8206;51.440;6.914;2023-02-28T10:29:59;3.60;99.90
16198;DHT22;8206;51.440;6.914;2023-02-28T10:32:28;3.80;99.90
16198;DHT22;8206;51.440;6.914;2023-02-28T10:34:59;3.80;99.90
16198;DHT22;8206;51.440;6.914;2023-02-28T10:37:26;3.80;99.90
16198;DHT22;8206;51.440;6.914;2023-02-28T10:39:52;4.00;99.90
16198;DHT22;8206;51.440;6.914;2023-02-28T10:42:22;4.10;99.90
16198;DHT22;8206;51.440;6.914;2023-02-28T10:45:05;4.30;99.90
16198;DHT22;8206;51.440;6.914;2023-02-28T10:47:33;4.50;99.90
16198;DHT22;8206;51.440;6.914;2023-02-28T10:50:02;4.60;99.90
16198;DHT22;8206;51.440;6.914;2023-02-28T10:52:38;4.70;99.90
16198;DHT22;8206;51.440;6.914;2023-02-28T10:55:20;4.80;99.90
16198;DHT22;8206;51.440;6.914;2023-02-28T10:57:48;4.90;99.90
16198;DHT22;8206;51.440;6.914;2023-02-28T11:00:18;4.80;99.90
16198;DHT22;8206;51.440;6.914;2023-02-28T11:02:45;4.80;99.90
16198;DHT22;8206;51.440;6.914;2023-02-28T11:05:28;4.80;99.90
16198;DHT22;8206;51.440;6.914;2023-02-28T11:07:59;4.70;99.90
16198;DHT22;8206;51.440;6.914;2023-02-28T11:10:30;4.50;99.90
16198;DHT22;8206;51.440;6.914;2023-02-28T11:13:00;4.20;99.90
16198;DHT22;8206;51.440;6.914;2023-02-28T11:15:29;4.10;99.90
16198;DHT22;8206;51.440;6.914;2023-02-28T11:17:58;4.00;99.90
16198;DHT22;8206;51.440;6.914;2023-02-28T11:20:28;3.90;99.90
16198;DHT22;8206;51.440;6.914;2023-02-28T11:22:57;3.90;99.90
16198;DHT22;8206;51.440;6.914;2023-02-28T11:25:30;3.90;99.90
16198;DHT22;8206;51.440;6.914;2023-02-28T11:27:58;3.90;99.90
16198;DHT22;8206;51.440;6.914;2023-02-28T11:30:29;4.10;99.90
16198;DHT22;8206;51.440;6.914;2023-02-28T11:32:56;4.20;99.90
16198;DHT22;8206;51.440;6.914;2023-02-28T11:35:27;4.20;99.90
16198;DHT22;8206;51.440;6.914;2023-02-28T11:37:55;4.20;99.90
16198;DHT22;8206;51.440;6.914;2023-02-28T11:40:30;4.20;99.90
16198;DHT22;8206;51.440;6.914;2023-02-28T11:43:06;4.20;99.90
16198;DHT22;8206;51.440;6.914;2023-02-28T11:45:45;4.30;99.90
16198;DHT22;8206;51.440;6.914;2023-02-28T11:48:20;4.30;99.90
16198;DHT22;8206;51.440;6.914;2023-02-28T11:51:01;4.20;99.90
16198;DHT22;8206;51.440;6.914;2023-02-28T11:53:44;4.30;99.90
16198;DHT22;8206;51.440;6.914;2023-02-28T11:56:18;4.30;99.90
16198;DHT22;8206;51.440;6.914;2023-02-28T11:58:54;4.30;99.90
16198;DHT22;8206;51.440;6.914;2023-02-28T12:01:38;4.40;99.90
16198;DHT22;8206;51.440;6.914;2023-02-28T12:04:17;4.30;99.90
16198;DHT22;8206;51.440;6.914;2023-02-28T12:06:54;4.40;99.90
16198;DHT22;8206;51.440;6.914;2023-02-28T12:09:40;4.60;99.90
16198;DHT22;8206;51.440;6.914;2023-02-28T12:12:23;4.60;99.90
16198;DHT22;8206;51.440;6.914;2023-02-28T12:15:05;4.60;99.90
16198;DHT22;8206;51.440;6.914;2023-02-28T12:17:49;4.60;99.90
16198;DHT22;8206;51.440;6.914;2023-02-28T12:20:25;4.60;99.90
16198;DHT22;8206;51.440;6.914;2023-02-28T12:23:04;4.60;99.90
16198;DHT22;8206;51.440;6.914;2023-02-28T12:25:55;4.70;99.90
16198;DHT22;8206;51.440;6.914;2023-02-28T12:28:27;4.80;99.90
16198;DHT22;8206;51.440;6.914;2023-02-28T12:31:00;4.80;99.90
16198;DHT22;8206;51.440;6.914;2023-02-28T12:33:34;4.80;99.90
16198;DHT22;8206;51.440;6.914;2023-02-28T12:36:04;4.80;99.90
16198;DHT22;8206;51.440;6.914;2023-02-28T12:38:37;4.80;99.90
16198;DHT22;8206;51.440;6.914;2023-02-28T12:41:11;4.80;99.90
16198;DHT22;8206;51.440;6.914;2023-02-28T12:43:43;4.80;99.90
16198;DHT22;8206;51.440;6.914;2023-02-28T12:46:14;4.70;99.90
16198;DHT22;8206;51.440;6.914;2023-02-28T12:48:46;4.70;99.90
16198;DHT22;8206;51.440;6.914;2023-02-28T12:51:15;4.80;99.90
16198;DHT22;8206;51.440;6.914;2023-02-28T12:53:57;4.80;99.90
16198;DHT22;8206;51.440;6.914;2023-02-28T12:56:33;4.80;99.90
16198;DHT22;8206;51.440;6.914;2023-02-28T12:59:04;4.80;99.90
16198;DHT22;8206;51.440;6.914;2023-02-28T13:01:45;4.80;99.90
16198;DHT22;8206;51.440;6.914;2023-02-28T13:04:32;4.80;99.90
16198;DHT22;8206;51.440;6.914;2023-02-28T13:07:17;4.80;99.90
16198;DHT22;8206;51.440;6.914;2023-02-28T13:09:53;4.90;99.90
16198;DHT22;8206;51.440;6.914;2023-02-28T13:12:21;4.90;99.90
16198;DHT22;8206;51.440;6.914;2023-02-28T13:14:49;4.90;99.90
16198;DHT22;8206;51.440;6.914;2023-02-28T13:17:19;4.90;99.90
16198;DHT22;8206;51.440;6.914;2023-02-28T13:19:56;4.90;99.90
16198;DHT22;8206;51.440;6.914;2023-02-28T13:22:38;5.00;99.90
16198;DHT22;8206;51.440;6.914;2023-02-28T13:28:09;5.00;99.90
16198;DHT22;8206;51.440;6.914;2023-02-28T13:31:04;5.00;99.90
16198;DHT22;8206;51.440;6.914;2023-02-28T13:33:31;5.00;99.90
16198;DHT22;8206;51.440;6.914;2023-02-28T13:36:09;5.00;99.90
16198;DHT22;8206;51.440;6.914;2023-02-28T13:38:46;5.20;99.90
16198;DHT22;8206;51.440;6.914;2023-02-28T13:41:45;5.20;99.90
16198;DHT22;8206;51.440;6.914;2023-02-28T13:44:15;5.10;99.90
16198;DHT22;8206;51.440;6.914;2023-02-28T13:49:52;5.20;99.90
16198;DHT22;8206;51.440;6.914;2023-02-28T13:52:22;5.20;99.90
16198;DHT22;8206;51.440;6.914;2023-02-28T13:55:11;5.10;99.90
16198;DHT22;8206;51.440;6.914;2023-02-28T13:57:54;5.10;99.90
16198;DHT22;8206;51.440;6.914;2023-02-28T14:00:37;5.00;99.90
16198;DHT22;8206;51.440;6.914;2023-02-28T14:03:25;4.90;99.90
16198;DHT22;8206;51.440;6.914;2023-02-28T14:06:16;4.90;99.90
16198;DHT22;8206;51.440;6.914;2023-02-28T14:08:51;5.00;99.90
16198;DHT22;8206;51.440;6.914;2023-02-28T14:11:31;5.10;99.90
16198;DHT22;8206;51.440;6.914;2023-02-28T14:13:59;5.10;99.90
16198;DHT22;8206;51.440;6.914;2023-02-28T14:16:35;5.10;99.90
16198;DHT22;8206;51.440;6.914;2023-02-28T14:19:10;5.00;99.90
16198;DHT22;8206;51.440;6.914;2023-02-28T14:21:40;5.00;99.90
16198;DHT22;8206;51.440;6.914;2023-02-28T14:24:41;5.10;99.90
16198;DHT22;8206;51.440;6.914;2023-02-28T14:27:27;5.10;99.90
16198;DHT22;8206;51.440;6.914;2023-02-28T14:30:03;4.90;99.90
16198;DHT22;8206;51.440;6.914;2023-02-28T14:32:41;5.00;99.90
16198;DHT22;8206;51.440;6.914;2023-02-28T14:35:20;4.90;99.90
16198;DHT22;8206;51.440;6.914;2023-02-28T14:37:49;4.90;99.90
16198;DHT22;8206;51.440;6.914;2023-02-28T14:40:27;5.00;99.90
16198;DHT22;8206;51.440;6.914;2023-02-28T14:42:56;5.00;99.90
16198;DHT22;8206;51.440;6.914;2023-02-28T14:45:23;5.00;99.90
16198;DHT22;8206;51.440;6.914;2023-02-28T14:47:52;5.00;99.90
16198;DHT22;8206;51.440;6.914;2023-02-28T14:50:20;5.00;99.90
16198;DHT22;8206;51.440;6.914;2023-02-28T14:52:50;5.00;99.90
16198;DHT22;8206;51.440;6.914;2023-02-28T14:55:19;4.90;99.90
16198;DHT22;8206;51.440;6.914;2023-02-28T14:57:54;4.80;99.90
16198;DHT22;8206;51.440;6.914;2023-02-28T15:00:23;4.80;99.90
16198;DHT22;8206;51.440;6.914;2023-02-28T15:02:52;4.80;99.90
16198;DHT22;8206;51.440;6.914;2023-02-28T15:05:26;4.90;99.90
16198;DHT22;8206;51.440;6.914;2023-02-28T15:08:10;4.90;99.90
16198;DHT22;8206;51.440;6.914;2023-02-28T15:10:39;4.80;99.90
16198;DHT22;8206;51.440;6.914;2023-02-28T15:13:11;4.80;99.90
16198;DHT22;8206;51.440;6.914;2023-02-28T15:15:44;4.90;99.90
16198;DHT22;8206;51.440;6.914;2023-02-28T15:18:26;5.00;99.90
16198;DHT22;8206;51.440;6.914;2023-02-28T15:20:57;5.00;99.90
16198;DHT22;8206;51.440;6.914;2023-02-28T15:23:25;4.90;99.90
16198;DHT22;8206;51.440;6.914;2023-02-28T15:25:53;4.90;99.90
16198;DHT22;8206;51.440;6.914;2023-02-28T15:28:22;4.90;99.90
16198;DHT22;8206;51.440;6.914;2023-02-28T15:30:53;4.80;99.90
16198;DHT22;8206;51.440;6.914;2023-02-28T15:33:23;4.80;99.90
16198;DHT22;8206;51.440;6.914;2023-02-28T15:35:50;4.80;99.90
16198;DHT22;8206;51.440;6.914;2023-02-28T15:38:22;4.70;99.90
16198;DHT22;8206;51.440;6.914;2023-02-28T15:40:53;4.70;99.90
16198;DHT22;8206;51.440;6.914;2023-02-28T15:43:26;4.60;99.90
16198;DHT22;8206;51.440;6.914;2023-02-28T15:45:56;4.70;99.90
16198;DHT22;8206;51.440;6.914;2023-02-28T15:48:27;4.70;99.90
16198;DHT22;8206;51.440;6.914;2023-02-28T15:50:57;4.70;99.90
16198;DHT22;8206;51.440;6.914;2023-02-28T15:53:29;4.70;99.90
16198;DHT22;8206;51.440;6.914;2023-02-28T15:56:01;4.70;99.90
16198;DHT22;8206;51.440;6.914;2023-02-28T15:58:29;4.70;99.90
16198;DHT22;8206;51.440;6.914;2023-02-28T16:01:06;4.70;99.90
16198;DHT22;8206;51.440;6.914;2023-02-28T16:03:44;4.60;99.90
16198;DHT22;8206;51.440;6.914;2023-02-28T16:09:10;4.50;99.90
16198;DHT22;8206;51.440;6.914;2023-02-28T16:11:39;4.50;99.90
16198;DHT22;8206;51.440;6.914;2023-02-28T16:14:14;4.50;99.90
16198;DHT22;8206;51.440;6.914;2023-02-28T16:16:43;4.40;99.90
16198;DHT22;8206;51.440;6.914;2023-02-28T16:19:11;4.50;99.90
16198;DHT22;8206;51.440;6.914;2023-02-28T16:21:38;4.40;99.90
16198;DHT22;8206;51.440;6.914;2023-02-28T16:24:05;4.30;99.90
16198;DHT22;8206;51.440;6.914;2023-02-28T16:26:32;4.30;99.90
16198;DHT22;8206;51.440;6.914;2023-02-28T16:29:00;4.30;99.90
16198;DHT22;8206;51.440;6.914;2023-02-28T16:31:28;4.20;99.90
16198;DHT22;8206;51.440;6.914;2023-02-28T16:33:55;4.20;99.90
16198;DHT22;8206;51.440;6.914;2023-02-28T16:36:24;4.10;99.90
16198;DHT22;8206;51.440;6.914;2023-02-28T16:38:51;4.10;99.90
16198;DHT22;8206;51.440;6.914;2023-02-28T16:41:20;4.00;99.90
16198;DHT22;8206;51.440;6.914;2023-02-28T16:43:48;4.00;99.90
16198;DHT22;8206;51.440;6.914;2023-02-28T16:46:16;4.10;99.90